sensor_id;sensor_type;location;lat;lon;timestamp;P1;durP1;ratioP1;P2;durP2;ratioP2
22525;SDS011;11429;50.842;4.386;2023-11-19T00:00:30;17.02;;;7.05;;
22525;SDS011;11429;50.842;4.386;2023-11-19T00:02:55;14.23;;;7.05;;
22525;SDS011;11429;50.842;4.386;2023-11-19T00:05:21;13.07;;;6.45;;
22525;SDS011;11429;50.842;4.386;2023-11-19T00:07:47;12.98;;;6.28;;
22525;SDS011;11429;50.842;4.386;2023-11-19T00:10:13;9.82;;;5.65;;
22525;SDS011;11429;50.842;4.386;2023-11-19T00:12:47;12.77;;;5.93;;
22525;SDS011;11429;50.842;4.386;2023-11-19T00:15:15;18.55;;;6.30;;
22525;SDS011;11429;50.842;4.386;2023-11-19T00:17:44;13.10;;;6.20;;
22525;SDS011;11429;50.842;4.386;2023-11-19T00:20:14;14.07;;;5.50;;
22525;SDS011;11429;50.842;4.386;2023-11-19T00:22:41;14.18;;;5.75;;
22525;SDS011;11429;50.842;4.386;2023-11-19T00:25:08;14.48;;;5.25;;
22525;SDS011;11429;50.842;4.386;2023-11-19T00:27:34;12.20;;;4.70;;
22525;SDS011;11429;50.842;4.386;2023-11-19T00:30:04;13.23;;;5.03;;
22525;SDS011;11429;50.842;4.386;2023-11-19T00:32:31;15.70;;;4.80;;
22525;SDS011;11429;50.842;4.386;2023-11-19T00:35:00;13.93;;;5.03;;
22525;SDS011;11429;50.842;4.386;2023-11-19T00:37:25;19.60;;;4.80;;
22525;SDS011;11429;50.842;4.386;2023-11-19T00:39:51;14.48;;;5.55;;
22525;SDS011;11429;50.842;4.386;2023-11-19T00:42:17;12.30;;;4.38;;
22525;SDS011;11429;50.842;4.386;2023-11-19T00:44:43;13.70;;;4.60;;
22525;SDS011;11429;50.842;4.386;2023-11-19T00:47:09;14.35;;;4.47;;
22525;SDS011;11429;50.842;4.386;2023-11-19T00:49:34;18.27;;;5.13;;
22525;SDS011;11429;50.842;4.386;2023-11-19T00:52:00;10.77;;;3.83;;
22525;SDS011;11429;50.842;4.386;2023-11-19T00:54:27;17.60;;;5.03;;
22525;SDS011;11429;50.842;4.386;2023-11-19T00:56:53;13.82;;;3.75;;
22525;SDS011;11429;50.842;4.386;2023-11-19T00:59:19;18.75;;;4.55;;
22525;SDS011;11429;50.842;4.386;2023-11-19T01:01:44;17.23;;;4.43;;
22525;SDS011;11429;50.842;4.386;2023-11-19T01:04:10;17.67;;;4.40;;
22525;SDS011;11429;50.842;4.386;2023-11-19T01:06:36;14.23;;;3.92;;
22525;SDS011;11429;50.842;4.386;2023-11-19T01:09:02;20.55;;;4.65;;
22525;SDS011;11429;50.842;4.386;2023-11-19T01:11:27;15.18;;;3.85;;
22525;SDS011;11429;50.842;4.386;2023-11-19T01:13:53;14.10;;;3.85;;
22525;SDS011;11429;50.842;4.386;2023-11-19T01:16:19;14.43;;;4.38;;
22525;SDS011;11429;50.842;4.386;2023-11-19T01:18:49;16.35;;;3.58;;
22525;SDS011;11429;50.842;4.386;2023-11-19T01:21:15;16.48;;;3.95;;
22525;SDS011;11429;50.842;4.386;2023-11-19T01:23:41;18.15;;;3.97;;
22525;SDS011;11429;50.842;4.386;2023-11-19T01:26:10;18.25;;;3.88;;
22525;SDS011;11429;50.842;4.386;2023-11-19T01:28:37;11.90;;;3.97;;
22525;SDS011;11429;50.842;4.386;2023-11-19T01:31:04;12.80;;;3.63;;
22525;SDS011;11429;50.842;4.386;2023-11-19T01:33:33;16.33;;;3.75;;
22525;SDS011;11429;50.842;4.386;2023-11-19T01:36:00;18.52;;;4.20;;
22525;SDS011;11429;50.842;4.386;2023-11-19T01:38:26;14.93;;;3.38;;
22525;SDS011;11429;50.842;4.386;2023-11-19T01:40:55;16.25;;;4.35;;
22525;SDS011;11429;50.842;4.386;2023-11-19T01:43:35;18.15;;;3.97;;
22525;SDS011;11429;50.842;4.386;2023-11-19T01:46:01;16.95;;;4.28;;
22525;SDS011;11429;50.842;4.386;2023-11-19T01:48:28;13.98;;;3.17;;
22525;SDS011;11429;50.842;4.386;2023-11-19T01:50:55;18.60;;;4.15;;
22525;SDS011;11429;50.842;4.386;2023-11-19T01:53:22;18.48;;;3.88;;
22525;SDS011;11429;50.842;4.386;2023-11-19T01:55:48;15.82;;;4.03;;
22525;SDS011;11429;50.842;4.386;2023-11-19T01:58:14;17.35;;;3.22;;
22525;SDS011;11429;50.842;4.386;2023-11-19T02:00:40;17.63;;;4.03;;
22525;SDS011;11429;50.842;4.386;2023-11-19T02:03:08;15.65;;;3.60;;
22525;SDS011;11429;50.842;4.386;2023-11-19T02:05:34;18.23;;;4.13;;
22525;SDS011;11429;50.842;4.386;2023-11-19T02:08:00;24.75;;;4.07;;
22525;SDS011;11429;50.842;4.386;2023-11-19T02:10:26;12.60;;;3.83;;
22525;SDS011;11429;50.842;4.386;2023-11-19T02:12:52;23.00;;;5.07;;
22525;SDS011;11429;50.842;4.386;2023-11-19T02:15:18;18.92;;;4.40;;
22525;SDS011;11429;50.842;4.386;2023-11-19T02:17:44;22.95;;;4.50;;
22525;SDS011;11429;50.842;4.386;2023-11-19T02:20:10;22.65;;;3.78;;
22525;SDS011;11429;50.842;4.386;2023-11-19T02:22:39;22.67;;;4.03;;
22525;SDS011;11429;50.842;4.386;2023-11-19T02:25:11;20.88;;;4.00;;
22525;SDS011;11429;50.842;4.386;2023-11-19T02:28:00;20.92;;;4.30;;
22525;SDS011;11429;50.842;4.386;2023-11-19T02:30:27;23.30;;;4.47;;
22525;SDS011;11429;50.842;4.386;2023-11-19T02:32:56;24.35;;;4.03;;
22525;SDS011;11429;50.842;4.386;2023-11-19T02:35:30;18.67;;;3.85;;
22525;SDS011;11429;50.842;4.386;2023-11-19T02:37:57;20.20;;;4.20;;
22525;SDS011;11429;50.842;4.386;2023-11-19T02:40:24;17.30;;;3.72;;
22525;SDS011;11429;50.842;4.386;2023-11-19T02:42:53;19.70;;;4.45;;
22525;SDS011;11429;50.842;4.386;2023-11-19T02:45:20;24.90;;;4.72;;
22525;SDS011;11429;50.842;4.386;2023-11-19T02:47:50;18.23;;;4.15;;
22525;SDS011;11429;50.842;4.386;2023-11-19T02:50:17;18.88;;;4.07;;
22525;SDS011;11429;50.842;4.386;2023-11-19T02:52:50;23.60;;;4.30;;
22525;SDS011;11429;50.842;4.386;2023-11-19T02:55:18;18.38;;;4.13;;
22525;SDS011;11429;50.842;4.386;2023-11-19T02:57:44;14.70;;;3.38;;
22525;SDS011;11429;50.842;4.386;2023-11-19T03:00:15;18.67;;;4.82;;
22525;SDS011;11429;50.842;4.386;2023-11-19T03:02:48;23.70;;;5.07;;
22525;SDS011;11429;50.842;4.386;2023-11-19T03:05:23;16.80;;;3.75;;
22525;SDS011;11429;50.842;4.386;2023-11-19T03:07:50;18.92;;;4.15;;
22525;SDS011;11429;50.842;4.386;2023-11-19T03:10:15;21.23;;;4.03;;
22525;SDS011;11429;50.842;4.386;2023-11-19T03:12:41;24.05;;;4.10;;
22525;SDS011;11429;50.842;4.386;2023-11-19T03:15:08;19.60;;;4.93;;
22525;SDS011;11429;50.842;4.386;2023-11-19T03:17:44;23.63;;;4.10;;
22525;SDS011;11429;50.842;4.386;2023-11-19T03:20:10;20.38;;;4.85;;
22525;SDS011;11429;50.842;4.386;2023-11-19T03:22:41;20.48;;;4.45;;
22525;SDS011;11429;50.842;4.386;2023-11-19T03:25:07;23.05;;;4.00;;
22525;SDS011;11429;50.842;4.386;2023-11-19T03:27:39;23.75;;;4.35;;
22525;SDS011;11429;50.842;4.386;2023-11-19T03:30:07;26.08;;;3.92;;
22525;SDS011;11429;50.842;4.386;2023-11-19T03:32:37;21.77;;;4.78;;
22525;SDS011;11429;50.842;4.386;2023-11-19T03:35:04;28.40;;;4.88;;
22525;SDS011;11429;50.842;4.386;2023-11-19T03:37:32;22.30;;;4.28;;
22525;SDS011;11429;50.842;4.386;2023-11-19T03:39:58;26.52;;;4.35;;
22525;SDS011;11429;50.842;4.386;2023-11-19T03:42:28;20.58;;;4.78;;
22525;SDS011;11429;50.842;4.386;2023-11-19T03:44:57;23.58;;;4.30;;
22525;SDS011;11429;50.842;4.386;2023-11-19T03:47:23;21.05;;;3.92;;
22525;SDS011;11429;50.842;4.386;2023-11-19T03:49:49;23.20;;;3.97;;
22525;SDS011;11429;50.842;4.386;2023-11-19T03:52:16;20.02;;;4.00;;
22525;SDS011;11429;50.842;4.386;2023-11-19T03:54:42;23.95;;;4.40;;
22525;SDS011;11429;50.842;4.386;2023-11-19T03:57:07;22.30;;;4.53;;
22525;SDS011;11429;50.842;4.386;2023-11-19T03:59:35;26.60;;;5.07;;
22525;SDS011;11429;50.842;4.386;2023-11-19T04:02:01;19.95;;;4.70;;
22525;SDS011;11429;50.842;4.386;2023-11-19T04:04:27;27.80;;;4.35;;
22525;SDS011;11429;50.842;4.386;2023-11-19T04:06:54;21.95;;;4.13;;
22525;SDS011;11429;50.842;4.386;2023-11-19T04:09:20;24.17;;;4.60;;
22525;SDS011;11429;50.842;4.386;2023-11-19T04:11:46;23.20;;;4.70;;
22525;SDS011;11429;50.842;4.386;2023-11-19T04:14:12;24.42;;;4.82;;
22525;SDS011;11429;50.842;4.386;2023-11-19T04:16:38;21.23;;;4.57;;
22525;SDS011;11429;50.842;4.386;2023-11-19T04:19:04;20.92;;;4.95;;
22525;SDS011;11429;50.842;4.386;2023-11-19T04:21:31;21.55;;;4.25;;
22525;SDS011;11429;50.842;4.386;2023-11-19T04:23:57;26.10;;;4.70;;
22525;SDS011;11429;50.842;4.386;2023-11-19T04:26:23;25.00;;;5.05;;
22525;SDS011;11429;50.842;4.386;2023-11-19T04:28:49;26.30;;;4.18;;
22525;SDS011;11429;50.842;4.386;2023-11-19T04:31:15;19.92;;;4.05;;
22525;SDS011;11429;50.842;4.386;2023-11-19T04:33:41;26.42;;;4.78;;
22525;SDS011;11429;50.842;4.386;2023-11-19T04:36:08;35.30;;;4.57;;
22525;SDS011;11429;50.842;4.386;2023-11-19T04:38:35;29.92;;;5.30;;
22525;SDS011;11429;50.842;4.386;2023-11-19T04:41:00;26.70;;;4.97;;
22525;SDS011;11429;50.842;4.386;2023-11-19T04:43:26;21.73;;;4.72;;
22525;SDS011;11429;50.842;4.386;2023-11-19T04:45:52;21.95;;;4.60;;
22525;SDS011;11429;50.842;4.386;2023-11-19T04:48:17;24.02;;;4.68;;
22525;SDS011;11429;50.842;4.386;2023-11-19T04:50:43;27.38;;;5.15;;
22525;SDS011;11429;50.842;4.386;2023-11-19T04:53:09;27.45;;;5.13;;
22525;SDS011;11429;50.842;4.386;2023-11-19T04:55:35;27.58;;;5.68;;
22525;SDS011;11429;50.842;4.386;2023-11-19T04:58:00;25.02;;;4.80;;
22525;SDS011;11429;50.842;4.386;2023-11-19T05:00:26;25.08;;;5.20;;
22525;SDS011;11429;50.842;4.386;2023-11-19T05:02:52;27.65;;;6.70;;
22525;SDS011;11429;50.842;4.386;2023-11-19T05:05:17;24.15;;;5.07;;
22525;SDS011;11429;50.842;4.386;2023-11-19T05:07:43;35.28;;;4.82;;
22525;SDS011;11429;50.842;4.386;2023-11-19T05:10:09;33.03;;;4.85;;
22525;SDS011;11429;50.842;4.386;2023-11-19T05:12:35;29.65;;;7.00;;
22525;SDS011;11429;50.842;4.386;2023-11-19T05:15:00;26.98;;;5.53;;
22525;SDS011;11429;50.842;4.386;2023-11-19T05:17:26;25.17;;;5.50;;
22525;SDS011;11429;50.842;4.386;2023-11-19T05:19:52;27.00;;;5.05;;
22525;SDS011;11429;50.842;4.386;2023-11-19T05:22:17;29.58;;;5.55;;
22525;SDS011;11429;50.842;4.386;2023-11-19T05:24:43;25.77;;;4.80;;
22525;SDS011;11429;50.842;4.386;2023-11-19T05:27:09;26.60;;;4.50;;
22525;SDS011;11429;50.842;4.386;2023-11-19T05:29:36;29.55;;;5.82;;
22525;SDS011;11429;50.842;4.386;2023-11-19T05:32:04;23.35;;;4.95;;
22525;SDS011;11429;50.842;4.386;2023-11-19T05:34:30;30.40;;;4.43;;
22525;SDS011;11429;50.842;4.386;2023-11-19T05:36:56;27.65;;;5.18;;
22525;SDS011;11429;50.842;4.386;2023-11-19T05:39:22;30.83;;;5.78;;
22525;SDS011;11429;50.842;4.386;2023-11-19T05:41:49;31.33;;;5.32;;
22525;SDS011;11429;50.842;4.386;2023-11-19T05:44:14;31.48;;;6.22;;
22525;SDS011;11429;50.842;4.386;2023-11-19T05:46:41;28.83;;;5.25;;
22525;SDS011;11429;50.842;4.386;2023-11-19T05:49:08;33.28;;;5.28;;
22525;SDS011;11429;50.842;4.386;2023-11-19T05:51:37;35.28;;;5.85;;
22525;SDS011;11429;50.842;4.386;2023-11-19T05:54:04;28.52;;;6.28;;
22525;SDS011;11429;50.842;4.386;2023-11-19T05:56:33;28.88;;;5.45;;
22525;SDS011;11429;50.842;4.386;2023-11-19T05:58:59;29.17;;;5.38;;
22525;SDS011;11429;50.842;4.386;2023-11-19T06:01:26;29.75;;;5.18;;
22525;SDS011;11429;50.842;4.386;2023-11-19T06:03:52;34.88;;;5.78;;
22525;SDS011;11429;50.842;4.386;2023-11-19T06:06:18;34.42;;;6.82;;
22525;SDS011;11429;50.842;4.386;2023-11-19T06:08:44;28.65;;;6.13;;
22525;SDS011;11429;50.842;4.386;2023-11-19T06:11:10;32.20;;;5.95;;
22525;SDS011;11429;50.842;4.386;2023-11-19T06:13:40;32.15;;;6.32;;
22525;SDS011;11429;50.842;4.386;2023-11-19T06:16:05;25.98;;;5.50;;
22525;SDS011;11429;50.842;4.386;2023-11-19T06:18:31;26.65;;;5.43;;
22525;SDS011;11429;50.842;4.386;2023-11-19T06:20:57;26.00;;;5.05;;
22525;SDS011;11429;50.842;4.386;2023-11-19T06:23:23;30.30;;;5.38;;
22525;SDS011;11429;50.842;4.386;2023-11-19T06:25:48;35.70;;;6.53;;
22525;SDS011;11429;50.842;4.386;2023-11-19T06:28:14;28.92;;;5.22;;
22525;SDS011;11429;50.842;4.386;2023-11-19T06:30:40;28.17;;;5.47;;
22525;SDS011;11429;50.842;4.386;2023-11-19T06:33:06;33.58;;;5.07;;
22525;SDS011;11429;50.842;4.386;2023-11-19T06:35:32;26.95;;;5.20;;
22525;SDS011;11429;50.842;4.386;2023-11-19T06:38:04;28.52;;;5.20;;
22525;SDS011;11429;50.842;4.386;2023-11-19T06:40:33;30.67;;;5.40;;
22525;SDS011;11429;50.842;4.386;2023-11-19T06:43:02;30.10;;;5.40;;
22525;SDS011;11429;50.842;4.386;2023-11-19T06:45:33;26.92;;;4.57;;
22525;SDS011;11429;50.842;4.386;2023-11-19T06:48:02;26.73;;;5.57;;
22525;SDS011;11429;50.842;4.386;2023-11-19T06:50:29;28.75;;;5.25;;
22525;SDS011;11429;50.842;4.386;2023-11-19T06:52:56;26.88;;;5.45;;
22525;SDS011;11429;50.842;4.386;2023-11-19T06:55:21;34.30;;;6.10;;
22525;SDS011;11429;50.842;4.386;2023-11-19T06:57:47;27.58;;;5.60;;
22525;SDS011;11429;50.842;4.386;2023-11-19T07:00:12;26.63;;;5.75;;
22525;SDS011;11429;50.842;4.386;2023-11-19T07:02:38;29.77;;;5.00;;
22525;SDS011;11429;50.842;4.386;2023-11-19T07:05:04;24.23;;;5.13;;
22525;SDS011;11429;50.842;4.386;2023-11-19T07:07:31;37.78;;;5.95;;
22525;SDS011;11429;50.842;4.386;2023-11-19T07:09:57;28.58;;;5.28;;
22525;SDS011;11429;50.842;4.386;2023-11-19T07:12:23;38.63;;;6.03;;
22525;SDS011;11429;50.842;4.386;2023-11-19T07:14:51;30.73;;;4.97;;
22525;SDS011;11429;50.842;4.386;2023-11-19T07:17:18;30.73;;;5.68;;
22525;SDS011;11429;50.842;4.386;2023-11-19T07:19:45;36.90;;;6.07;;
22525;SDS011;11429;50.842;4.386;2023-11-19T07:22:11;33.25;;;5.55;;
22525;SDS011;11429;50.842;4.386;2023-11-19T07:24:39;36.92;;;5.28;;
22525;SDS011;11429;50.842;4.386;2023-11-19T07:27:05;35.30;;;5.50;;
22525;SDS011;11429;50.842;4.386;2023-11-19T07:29:31;29.10;;;5.72;;
22525;SDS011;11429;50.842;4.386;2023-11-19T07:31:57;37.50;;;5.93;;
22525;SDS011;11429;50.842;4.386;2023-11-19T07:34:23;26.33;;;5.63;;
22525;SDS011;11429;50.842;4.386;2023-11-19T07:36:49;22.25;;;5.88;;
22525;SDS011;11429;50.842;4.386;2023-11-19T07:39:15;27.65;;;5.18;;
22525;SDS011;11429;50.842;4.386;2023-11-19T07:41:41;32.55;;;6.40;;
22525;SDS011;11429;50.842;4.386;2023-11-19T07:44:06;26.27;;;6.95;;
22525;SDS011;11429;50.842;4.386;2023-11-19T07:46:32;24.70;;;4.75;;
22525;SDS011;11429;50.842;4.386;2023-11-19T07:48:58;25.95;;;4.88;;
22525;SDS011;11429;50.842;4.386;2023-11-19T07:51:23;33.78;;;6.22;;
22525;SDS011;11429;50.842;4.386;2023-11-19T07:53:49;33.70;;;5.80;;
22525;SDS011;11429;50.842;4.386;2023-11-19T07:56:15;20.92;;;4.72;;
22525;SDS011;11429;50.842;4.386;2023-11-19T07:58:41;26.17;;;5.15;;
22525;SDS011;11429;50.842;4.386;2023-11-19T08:01:07;26.48;;;5.47;;
22525;SDS011;11429;50.842;4.386;2023-11-19T08:03:32;29.85;;;4.72;;
22525;SDS011;11429;50.842;4.386;2023-11-19T08:06:01;32.53;;;6.05;;
22525;SDS011;11429;50.842;4.386;2023-11-19T08:08:28;27.65;;;5.15;;
22525;SDS011;11429;50.842;4.386;2023-11-19T08:10:58;26.13;;;5.53;;
22525;SDS011;11429;50.842;4.386;2023-11-19T08:13:24;32.40;;;5.72;;
22525;SDS011;11429;50.842;4.386;2023-11-19T08:15:50;25.88;;;5.85;;
22525;SDS011;11429;50.842;4.386;2023-11-19T08:18:16;25.13;;;4.95;;
22525;SDS011;11429;50.842;4.386;2023-11-19T08:20:43;23.50;;;4.68;;
22525;SDS011;11429;50.842;4.386;2023-11-19T08:23:09;24.67;;;5.00;;
22525;SDS011;11429;50.842;4.386;2023-11-19T08:25:35;25.73;;;5.20;;
22525;SDS011;11429;50.842;4.386;2023-11-19T08:28:01;29.13;;;4.70;;
22525;SDS011;11429;50.842;4.386;2023-11-19T08:30:28;24.95;;;5.53;;
22525;SDS011;11429;50.842;4.386;2023-11-19T08:32:55;27.13;;;6.35;;
22525;SDS011;11429;50.842;4.386;2023-11-19T08:35:25;27.23;;;4.78;;
22525;SDS011;11429;50.842;4.386;2023-11-19T08:37:50;22.80;;;4.82;;
22525;SDS011;11429;50.842;4.386;2023-11-19T08:40:17;26.95;;;4.95;;
22525;SDS011;11429;50.842;4.386;2023-11-19T08:42:42;30.70;;;5.63;;
22525;SDS011;11429;50.842;4.386;2023-11-19T08:45:08;24.23;;;5.03;;
22525;SDS011;11429;50.842;4.386;2023-11-19T08:47:35;27.70;;;5.40;;
22525;SDS011;11429;50.842;4.386;2023-11-19T08:50:01;20.58;;;5.25;;
22525;SDS011;11429;50.842;4.386;2023-11-19T08:52:29;25.92;;;5.35;;
22525;SDS011;11429;50.842;4.386;2023-11-19T08:54:55;24.17;;;5.50;;
22525;SDS011;11429;50.842;4.386;2023-11-19T08:57:21;27.27;;;4.45;;
22525;SDS011;11429;50.842;4.386;2023-11-19T08:59:46;30.90;;;4.93;;
22525;SDS011;11429;50.842;4.386;2023-11-19T09:02:12;23.55;;;4.40;;
22525;SDS011;11429;50.842;4.386;2023-11-19T09:04:37;22.27;;;4.50;;
22525;SDS011;11429;50.842;4.386;2023-11-19T09:07:03;30.08;;;4.45;;
22525;SDS011;11429;50.842;4.386;2023-11-19T09:09:29;25.70;;;4.90;;
22525;SDS011;11429;50.842;4.386;2023-11-19T09:11:55;26.95;;;5.25;;
22525;SDS011;11429;50.842;4.386;2023-11-19T09:14:21;32.45;;;5.38;;
22525;SDS011;11429;50.842;4.386;2023-11-19T09:16:51;24.35;;;4.35;;
22525;SDS011;11429;50.842;4.386;2023-11-19T09:19:17;27.55;;;4.78;;
22525;SDS011;11429;50.842;4.386;2023-11-19T09:21:43;27.85;;;5.30;;
22525;SDS011;11429;50.842;4.386;2023-11-19T09:24:09;21.92;;;4.70;;
22525;SDS011;11429;50.842;4.386;2023-11-19T09:26:34;23.05;;;4.95;;
22525;SDS011;11429;50.842;4.386;2023-11-19T09:29:01;21.08;;;4.78;;
22525;SDS011;11429;50.842;4.386;2023-11-19T09:31:27;20.80;;;4.30;;
22525;SDS011;11429;50.842;4.386;2023-11-19T09:33:53;22.92;;;4.60;;
22525;SDS011;11429;50.842;4.386;2023-11-19T09:36:18;20.50;;;3.90;;
22525;SDS011;11429;50.842;4.386;2023-11-19T09:38:44;24.48;;;4.80;;
22525;SDS011;11429;50.842;4.386;2023-11-19T09:41:10;19.27;;;4.05;;
22525;SDS011;11429;50.842;4.386;2023-11-19T09:43:39;22.60;;;4.45;;
22525;SDS011;11429;50.842;4.386;2023-11-19T09:46:06;16.80;;;3.75;;
22525;SDS011;11429;50.842;4.386;2023-11-19T09:48:35;20.83;;;4.32;;
22525;SDS011;11429;50.842;4.386;2023-11-19T09:51:05;23.85;;;5.18;;
22525;SDS011;11429;50.842;4.386;2023-11-19T09:53:36;20.05;;;4.78;;
22525;SDS011;11429;50.842;4.386;2023-11-19T09:56:03;17.73;;;4.18;;
22525;SDS011;11429;50.842;4.386;2023-11-19T09:58:29;24.60;;;5.05;;
22525;SDS011;11429;50.842;4.386;2023-11-19T10:00:56;17.75;;;4.72;;
22525;SDS011;11429;50.842;4.386;2023-11-19T10:03:32;17.98;;;4.40;;
22525;SDS011;11429;50.842;4.386;2023-11-19T10:06:03;20.35;;;4.85;;
22525;SDS011;11429;50.842;4.386;2023-11-19T10:08:31;19.80;;;4.50;;
22525;SDS011;11429;50.842;4.386;2023-11-19T10:10:58;18.25;;;4.70;;
22525;SDS011;11429;50.842;4.386;2023-11-19T10:13:30;15.05;;;3.92;;
22525;SDS011;11429;50.842;4.386;2023-11-19T10:15:56;18.17;;;4.75;;
22525;SDS011;11429;50.842;4.386;2023-11-19T10:18:25;17.38;;;4.68;;
22525;SDS011;11429;50.842;4.386;2023-11-19T10:20:51;20.27;;;4.50;;
22525;SDS011;11429;50.842;4.386;2023-11-19T10:23:18;18.17;;;4.65;;
22525;SDS011;11429;50.842;4.386;2023-11-19T10:25:44;20.63;;;4.13;;
22525;SDS011;11429;50.842;4.386;2023-11-19T10:28:10;20.05;;;5.30;;
22525;SDS011;11429;50.842;4.386;2023-11-19T10:30:36;23.75;;;4.70;;
22525;SDS011;11429;50.842;4.386;2023-11-19T10:33:11;19.77;;;5.10;;
22525;SDS011;11429;50.842;4.386;2023-11-19T10:38:18;20.30;;;4.07;;
22525;SDS011;11429;50.842;4.386;2023-11-19T10:40:44;23.10;;;4.80;;
22525;SDS011;11429;50.842;4.386;2023-11-19T10:43:10;18.63;;;3.63;;
22525;SDS011;11429;50.842;4.386;2023-11-19T10:45:36;20.23;;;4.47;;
22525;SDS011;11429;50.842;4.386;2023-11-19T10:48:03;19.15;;;3.90;;
22525;SDS011;11429;50.842;4.386;2023-11-19T10:50:36;18.30;;;4.40;;
22525;SDS011;11429;50.842;4.386;2023-11-19T10:53:03;22.45;;;5.40;;
22525;SDS011;11429;50.842;4.386;2023-11-19T10:55:31;27.55;;;15.45;;
22525;SDS011;11429;50.842;4.386;2023-11-19T10:58:05;15.35;;;4.32;;
22525;SDS011;11429;50.842;4.386;2023-11-19T11:00:39;20.73;;;4.03;;
22525;SDS011;11429;50.842;4.386;2023-11-19T11:03:14;15.48;;;3.55;;
22525;SDS011;11429;50.842;4.386;2023-11-19T11:05:41;19.55;;;4.28;;
22525;SDS011;11429;50.842;4.386;2023-11-19T11:08:08;19.70;;;3.95;;
22525;SDS011;11429;50.842;4.386;2023-11-19T11:10:38;19.73;;;4.40;;
22525;SDS011;11429;50.842;4.386;2023-11-19T11:13:07;19.95;;;4.00;;
22525;SDS011;11429;50.842;4.386;2023-11-19T11:15:35;21.27;;;4.40;;
22525;SDS011;11429;50.842;4.386;2023-11-19T11:18:02;23.48;;;5.07;;
22525;SDS011;11429;50.842;4.386;2023-11-19T11:20:32;22.00;;;4.32;;
22525;SDS011;11429;50.842;4.386;2023-11-19T11:28:59;15.48;;;4.40;;
22525;SDS011;11429;50.842;4.386;2023-11-19T11:39:57;24.20;;;5.07;;
22525;SDS011;11429;50.842;4.386;2023-11-19T11:50:14;22.08;;;4.65;;
22525;SDS011;11429;50.842;4.386;2023-11-19T12:00:43;24.45;;;5.07;;
22525;SDS011;11429;50.842;4.386;2023-11-19T12:03:11;17.08;;;3.83;;
22525;SDS011;11429;50.842;4.386;2023-11-19T12:05:40;19.10;;;4.35;;
22525;SDS011;11429;50.842;4.386;2023-11-19T12:08:08;22.13;;;4.22;;
22525;SDS011;11429;50.842;4.386;2023-11-19T12:10:37;26.85;;;4.75;;
22525;SDS011;11429;50.842;4.386;2023-11-19T12:13:17;21.85;;;4.85;;
22525;SDS011;11429;50.842;4.386;2023-11-19T12:18:23;15.38;;;3.55;;
22525;SDS011;11429;50.842;4.386;2023-11-19T12:20:48;13.50;;;2.58;;
22525;SDS011;11429;50.842;4.386;2023-11-19T12:23:14;18.52;;;4.35;;
22525;SDS011;11429;50.842;4.386;2023-11-19T12:25:40;18.35;;;3.65;;
22525;SDS011;11429;50.842;4.386;2023-11-19T12:28:11;18.63;;;3.97;;
22525;SDS011;11429;50.842;4.386;2023-11-19T12:30:38;19.38;;;4.35;;
22525;SDS011;11429;50.842;4.386;2023-11-19T12:33:13;21.48;;;4.03;;
22525;SDS011;11429;50.842;4.386;2023-11-19T12:38:18;21.45;;;4.57;;
22525;SDS011;11429;50.842;4.386;2023-11-19T12:41:04;20.55;;;5.03;;
22525;SDS011;11429;50.842;4.386;2023-11-19T12:43:30;18.55;;;4.50;;
22525;SDS011;11429;50.842;4.386;2023-11-19T12:45:56;22.95;;;4.40;;
22525;SDS011;11429;50.842;4.386;2023-11-19T12:48:22;18.85;;;4.15;;
22525;SDS011;11429;50.842;4.386;2023-11-19T12:50:57;19.58;;;4.53;;
22525;SDS011;11429;50.842;4.386;2023-11-19T12:53:25;23.42;;;4.70;;
22525;SDS011;11429;50.842;4.386;2023-11-19T12:55:51;18.45;;;4.60;;
22525;SDS011;11429;50.842;4.386;2023-11-19T12:58:30;24.33;;;4.90;;
22525;SDS011;11429;50.842;4.386;2023-11-19T13:01:00;20.38;;;4.47;;
22525;SDS011;11429;50.842;4.386;2023-11-19T13:03:31;18.13;;;4.13;;
22525;SDS011;11429;50.842;4.386;2023-11-19T13:06:03;21.92;;;4.32;;
22525;SDS011;11429;50.842;4.386;2023-11-19T13:08:36;27.60;;;5.13;;
22525;SDS011;11429;50.842;4.386;2023-11-19T13:11:03;30.23;;;5.50;;
22525;SDS011;11429;50.842;4.386;2023-11-19T13:13:29;22.60;;;4.38;;
22525;SDS011;11429;50.842;4.386;2023-11-19T13:16:04;23.92;;;4.85;;
22525;SDS011;11429;50.842;4.386;2023-11-19T13:18:34;22.77;;;4.80;;
22525;SDS011;11429;50.842;4.386;2023-11-19T13:21:00;28.15;;;5.22;;
22525;SDS011;11429;50.842;4.386;2023-11-19T13:23:25;20.25;;;3.90;;
22525;SDS011;11429;50.842;4.386;2023-11-19T13:25:51;22.73;;;5.28;;
22525;SDS011;11429;50.842;4.386;2023-11-19T13:28:17;23.25;;;4.28;;
22525;SDS011;11429;50.842;4.386;2023-11-19T13:30:42;22.77;;;4.72;;
22525;SDS011;11429;50.842;4.386;2023-11-19T13:33:08;25.52;;;4.90;;
22525;SDS011;11429;50.842;4.386;2023-11-19T13:35:37;25.40;;;5.57;;
22525;SDS011;11429;50.842;4.386;2023-11-19T13:38:05;23.10;;;5.15;;
22525;SDS011;11429;50.842;4.386;2023-11-19T13:40:31;32.65;;;6.15;;
22525;SDS011;11429;50.842;4.386;2023-11-19T13:42:57;21.67;;;4.57;;
22525;SDS011;11429;50.842;4.386;2023-11-19T13:45:22;23.27;;;5.15;;
22525;SDS011;11429;50.842;4.386;2023-11-19T13:47:48;21.15;;;4.75;;
22525;SDS011;11429;50.842;4.386;2023-11-19T13:50:14;23.80;;;4.40;;
22525;SDS011;11429;50.842;4.386;2023-11-19T13:52:42;22.60;;;4.38;;
22525;SDS011;11429;50.842;4.386;2023-11-19T13:55:11;22.60;;;4.95;;
22525;SDS011;11429;50.842;4.386;2023-11-19T13:57:37;22.55;;;4.60;;
22525;SDS011;11429;50.842;4.386;2023-11-19T14:00:04;22.90;;;4.60;;
22525;SDS011;11429;50.842;4.386;2023-11-19T14:02:38;22.88;;;5.03;;
22525;SDS011;11429;50.842;4.386;2023-11-19T14:05:05;22.35;;;4.57;;
22525;SDS011;11429;50.842;4.386;2023-11-19T14:07:31;22.67;;;5.18;;
22525;SDS011;11429;50.842;4.386;2023-11-19T14:09:56;23.02;;;4.70;;
22525;SDS011;11429;50.842;4.386;2023-11-19T14:12:22;22.75;;;4.90;;
22525;SDS011;11429;50.842;4.386;2023-11-19T14:14:48;26.40;;;5.45;;
22525;SDS011;11429;50.842;4.386;2023-11-19T14:17:13;23.50;;;4.80;;
22525;SDS011;11429;50.842;4.386;2023-11-19T14:19:40;23.30;;;5.38;;
22525;SDS011;11429;50.842;4.386;2023-11-19T14:22:07;21.58;;;5.05;;
22525;SDS011;11429;50.842;4.386;2023-11-19T14:24:33;26.67;;;5.40;;
22525;SDS011;11429;50.842;4.386;2023-11-19T14:27:00;37.60;;;5.85;;
22525;SDS011;11429;50.842;4.386;2023-11-19T14:29:26;21.15;;;4.78;;
22525;SDS011;11429;50.842;4.386;2023-11-19T14:31:53;29.80;;;5.00;;
22525;SDS011;11429;50.842;4.386;2023-11-19T14:34:19;27.77;;;5.18;;
22525;SDS011;11429;50.842;4.386;2023-11-19T14:36:45;24.15;;;5.13;;
22525;SDS011;11429;50.842;4.386;2023-11-19T14:39:12;23.38;;;4.72;;
22525;SDS011;11429;50.842;4.386;2023-11-19T14:41:38;23.30;;;5.82;;
22525;SDS011;11429;50.842;4.386;2023-11-19T14:44:04;26.70;;;4.82;;
22525;SDS011;11429;50.842;4.386;2023-11-19T14:46:30;22.77;;;5.13;;
22525;SDS011;11429;50.842;4.386;2023-11-19T14:48:56;30.25;;;5.72;;
22525;SDS011;11429;50.842;4.386;2023-11-19T14:51:22;22.00;;;5.40;;
22525;SDS011;11429;50.842;4.386;2023-11-19T14:53:47;22.77;;;5.05;;
22525;SDS011;11429;50.842;4.386;2023-11-19T14:56:13;21.65;;;4.43;;
22525;SDS011;11429;50.842;4.386;2023-11-19T14:58:39;24.42;;;5.07;;
22525;SDS011;11429;50.842;4.386;2023-11-19T15:01:05;19.52;;;4.85;;
22525;SDS011;11429;50.842;4.386;2023-11-19T15:03:31;23.02;;;4.28;;
22525;SDS011;11429;50.842;4.386;2023-11-19T15:05:57;22.80;;;4.53;;
22525;SDS011;11429;50.842;4.386;2023-11-19T15:08:23;23.20;;;5.50;;
22525;SDS011;11429;50.842;4.386;2023-11-19T15:10:49;23.27;;;4.68;;